Time;durP1;ratioP1;P1;durP2;ratioP2;P2;SDS_P1;SDS_P2;PMS_P1;PMS_P2;Temp;Humidity;BMP_temperature;BMP_pressure;BME280_temperature;BME280_humidity;BME280_pressure;Samples;Min_cycle;Max_cycle;Signal;HPM_P1;HPM_P2
2023/09/23 00:00:08;;;;;;;0.65;0.65;;;;;;;;;;6212829;23;20008;-89
2023/09/23 00:02:35;;;;;;;0.77;0.70;;;;;;;;;;6213352;23;20149;-89
2023/09/23 00:05:01;;;;;;;0.70;0.70;;;;;;;;;;6210657;23;20086;-90
2023/09/23 00:07:28;;;;;;;1.88;0.88;;;;;;;;;;6210931;23;20042;-90
2023/09/23 00:09:55;;;;;;;1.02;0.70;;;;;;;;;;6210174;23;20024;-90
2023/09/23 00:12:20;;;;;;;1.17;0.73;;;;;;;;;;6210616;23;20009;-89
2023/09/23 00:14:46;;;;;;;0.68;0.65;;;;;;;;;;6211202;23;20042;-90
2023/09/23 00:17:13;;;;;;;1.75;0.68;;;;;;;;;;6210165;23;20023;-90
2023/09/23 00:19:40;;;;;;;0.68;0.63;;;;;;;;;;6211408;23;20366;-90
2023/09/23 00:22:06;;;;;;;0.85;0.57;;;;;;;;;;6210533;23;20013;-89
2023/09/23 00:24:32;;;;;;;0.70;0.63;;;;;;;;;;6211949;23;20036;-90
2023/09/23 00:26:59;;;;;;;0.70;0.65;;;;;;;;;;6210415;23;20393;-89
2023/09/23 00:29:28;;;;;;;0.52;0.52;;;;;;;;;;6211033;23;20012;-90
2023/09/23 00:31:55;;;;;;;0.90;0.80;;;;;;;;;;6211865;23;20016;-89
2023/09/23 00:34:23;;;;;;;0.68;0.63;;;;;;;;;;6210860;23;20067;-90
2023/09/23 00:36:50;;;;;;;1.08;0.80;;;;;;;;;;6211079;23;20023;-89
2023/09/23 00:39:17;;;;;;;1.73;0.98;;;;;;;;;;6209108;23;20013;-89
2023/09/23 00:41:43;;;;;;;1.20;0.85;;;;;;;;;;6212473;23;20012;-90
2023/09/23 00:44:10;;;;;;;1.08;0.98;;;;;;;;;;6211525;23;20056;-89
2023/09/23 00:46:36;;;;;;;2.20;1.10;;;;;;;;;;6211360;23;20347;-89
2023/09/23 00:49:07;;;;;;;1.70;0.93;;;;;;;;;;6212297;23;20013;-89
2023/09/23 00:51:33;;;;;;;1.38;1.17;;;;;;;;;;6211073;23;20013;-89
2023/09/23 00:54:01;;;;;;;2.75;1.52;;;;;;;;;;6212505;23;20012;-89
2023/09/23 00:56:30;;;;;;;1.42;1.17;;;;;;;;;;6212003;23;20095;-89
2023/09/23 00:58:58;;;;;;;2.15;1.50;;;;;;;;;;6213181;23;20020;-89
2023/09/23 01:01:24;;;;;;;1.90;1.20;;;;;;;;;;6218165;23;20330;-89
2023/09/23 01:03:50;;;;;;;1.10;1.00;;;;;;;;;;6212482;23;20091;-89
2023/09/23 01:06:16;;;;;;;1.20;0.90;;;;;;;;;;6214400;23;20044;-88
2023/09/23 01:08:45;;;;;;;1.17;1.08;;;;;;;;;;6223317;23;20015;-88
2023/09/23 01:11:11;;;;;;;1.08;0.73;;;;;;;;;;6221963;23;20080;-86
2023/09/23 01:13:37;;;;;;;2.30;0.90;;;;;;;;;;6222268;23;20012;-87
2023/09/23 01:16:08;;;;;;;1.17;0.70;;;;;;;;;;6212438;23;20087;-89
2023/09/23 01:18:35;;;;;;;1.38;0.40;;;;;;;;;;6213117;23;20013;-89
2023/09/23 01:21:03;;;;;;;1.48;0.50;;;;;;;;;;6210211;23;20385;-89
2023/09/23 01:23:29;;;;;;;0.88;0.60;;;;;;;;;;6209126;23;20025;-89
2023/09/23 01:25:55;;;;;;;1.13;0.65;;;;;;;;;;6209467;23;20390;-89
2023/09/23 01:28:21;;;;;;;1.00;0.60;;;;;;;;;;6210141;23;20051;-89
2023/09/23 01:30:47;;;;;;;1.00;0.70;;;;;;;;;;6210334;23;20342;-90
2023/09/23 01:33:16;;;;;;;1.10;0.73;;;;;;;;;;6209526;23;20020;-88
2023/09/23 01:35:43;;;;;;;1.05;0.30;;;;;;;;;;6210438;23;20315;-88
2023/09/23 01:38:09;;;;;;;1.75;0.50;;;;;;;;;;6209717;23;20017;-87
2023/09/23 01:40:36;;;;;;;0.95;0.50;;;;;;;;;;6212024;23;20019;-89
2023/09/23 01:43:03;;;;;;;0.45;0.40;;;;;;;;;;6210038;23;20084;-90
2023/09/23 01:45:31;;;;;;;2.78;0.43;;;;;;;;;;6212344;23;20047;-88
2023/09/23 01:47:57;;;;;;;0.47;0.47;;;;;;;;;;6213473;23;20012;-88
2023/09/23 01:50:24;;;;;;;0.70;0.60;;;;;;;;;;6213376;23;20019;-88
2023/09/23 01:52:50;;;;;;;6.65;1.00;;;;;;;;;;6212325;23;20013;-88
2023/09/23 01:55:17;;;;;;;1.17;0.68;;;;;;;;;;6211767;23;20024;-88
2023/09/23 01:57:43;;;;;;;2.22;1.02;;;;;;;;;;6213824;23;20315;-88
2023/09/23 02:00:14;;;;;;;1.25;1.00;;;;;;;;;;6213053;23;20087;-89
2023/09/23 02:02:42;;;;;;;1.00;0.73;;;;;;;;;;6213893;23;20019;-90
2023/09/23 02:05:08;;;;;;;1.98;1.30;;;;;;;;;;6212983;23;20025;-89
2023/09/23 02:07:34;;;;;;;1.83;1.40;;;;;;;;;;6211982;23;20075;-89
2023/09/23 02:10:01;;;;;;;1.58;1.45;;;;;;;;;;6212002;23;20023;-88
2023/09/23 02:12:27;;;;;;;2.10;1.45;;;;;;;;;;6212899;23;20063;-89
2023/09/23 02:14:53;;;;;;;2.08;1.40;;;;;;;;;;6211397;23;20020;-88
2023/09/23 02:17:20;;;;;;;1.77;1.30;;;;;;;;;;6212413;23;20074;-89
2023/09/23 02:19:51;;;;;;;2.00;1.58;;;;;;;;;;6211974;23;20051;-87
2023/09/23 02:22:17;;;;;;;1.77;1.52;;;;;;;;;;6212831;23;20025;-89
2023/09/23 02:24:44;;;;;;;3.17;2.05;;;;;;;;;;6213770;23;20060;-88
2023/09/23 02:27:10;;;;;;;1.80;1.55;;;;;;;;;;6212317;23;20016;-89
2023/09/23 02:29:36;;;;;;;1.42;1.27;;;;;;;;;;6214305;23;20016;-89
2023/09/23 02:32:02;;;;;;;2.58;1.65;;;;;;;;;;6212529;23;20012;-89
2023/09/23 02:34:28;;;;;;;3.00;1.60;;;;;;;;;;6211217;23;20859;-89
2023/09/23 02:36:54;;;;;;;4.40;2.00;;;;;;;;;;6212579;23;20012;-88
2023/09/23 02:39:21;;;;;;;1.67;1.52;;;;;;;;;;6184847;23;20088;-89
2023/09/23 02:41:47;;;;;;;2.63;1.55;;;;;;;;;;6210549;23;20015;-89
2023/09/23 02:44:20;;;;;;;2.78;2.00;;;;;;;;;;6210769;23;20016;-90
2023/09/23 02:46:46;;;;;;;4.70;2.47;;;;;;;;;;6214003;23;20013;-89
2023/09/23 02:49:13;;;;;;;3.17;1.95;;;;;;;;;;6210807;23;20091;-88
2023/09/23 02:51:41;;;;;;;2.00;1.45;;;;;;;;;;6213842;23;20607;-89
2023/09/23 02:54:08;;;;;;;2.60;1.80;;;;;;;;;;6212712;23;20068;-89
2023/09/23 02:56:34;;;;;;;2.67;1.98;;;;;;;;;;6190094;23;20018;-89
2023/09/23 02:59:03;;;;;;;2.60;2.15;;;;;;;;;;6216646;23;20012;-89
2023/09/23 03:01:30;;;;;;;4.00;1.70;;;;;;;;;;6222537;23;20016;-88
2023/09/23 03:03:56;;;;;;;2.35;2.15;;;;;;;;;;6233803;23;20040;-89
2023/09/23 03:06:25;;;;;;;2.55;1.77;;;;;;;;;;6232274;23;20193;-90
2023/09/23 03:08:54;;;;;;;3.60;2.10;;;;;;;;;;6222531;23;20013;-89
2023/09/23 03:11:26;;;;;;;4.97;2.22;;;;;;;;;;6221539;23;20054;-89
2023/09/23 03:13:52;;;;;;;2.45;1.90;;;;;;;;;;6217178;23;20042;-89
2023/09/23 03:16:28;;;;;;;2.95;1.98;;;;;;;;;;6213579;23;20154;-89
2023/09/23 03:19:10;;;;;;;2.80;2.03;;;;;;;;;;6216954;23;20091;-90
2023/09/23 03:21:36;;;;;;;3.83;2.00;;;;;;;;;;6213321;23;20009;-88
2023/09/23 03:24:02;;;;;;;2.28;1.85;;;;;;;;;;6210498;23;20009;-89
2023/09/23 03:26:28;;;;;;;2.78;2.25;;;;;;;;;;6212973;23;20180;-88
2023/09/23 03:28:54;;;;;;;2.65;1.95;;;;;;;;;;6212281;23;20016;-90
2023/09/23 03:31:20;;;;;;;2.38;2.00;;;;;;;;;;6211344;23;20016;-90
2023/09/23 03:33:46;;;;;;;2.65;2.20;;;;;;;;;;6209587;23;20016;-90
2023/09/23 03:36:16;;;;;;;2.50;2.28;;;;;;;;;;6209214;23;20013;-90
2023/09/23 03:38:42;;;;;;;2.90;2.28;;;;;;;;;;6210947;23;20099;-89
2023/09/23 03:41:11;;;;;;;2.97;2.20;;;;;;;;;;6212120;23;20012;-90
2023/09/23 03:43:39;;;;;;;2.88;2.25;;;;;;;;;;6211305;23;20016;-89
2023/09/23 03:46:10;;;;;;;5.13;2.55;;;;;;;;;;6212857;23;20043;-89
2023/09/23 03:48:37;;;;;;;3.08;2.38;;;;;;;;;;6212846;23;20012;-89
2023/09/23 03:51:05;;;;;;;3.42;2.40;;;;;;;;;;6211248;23;20106;-89
2023/09/23 03:53:31;;;;;;;2.90;2.30;;;;;;;;;;6209961;23;20109;-89
2023/09/23 03:56:00;;;;;;;4.35;2.67;;;;;;;;;;6210274;23;20090;-89
2023/09/23 03:58:27;;;;;;;2.65;2.33;;;;;;;;;;6211887;23;20016;-90
2023/09/23 04:00:57;;;;;;;3.10;2.45;;;;;;;;;;6212672;23;20016;-89
2023/09/23 04:03:23;;;;;;;2.53;1.95;;;;;;;;;;6208820;23;20052;-89
2023/09/23 04:05:57;;;;;;;4.00;2.53;;;;;;;;;;6210156;23;20080;-89
2023/09/23 04:08:23;;;;;;;3.20;2.50;;;;;;;;;;6211154;23;20051;-89
2023/09/23 04:10:49;;;;;;;3.35;2.67;;;;;;;;;;6212391;23;20105;-89
2023/09/23 04:13:15;;;;;;;2.88;2.13;;;;;;;;;;6211921;23;20017;-89
2023/09/23 04:15:42;;;;;;;3.40;2.42;;;;;;;;;;6212385;23;20035;-90
2023/09/23 04:18:09;;;;;;;3.97;2.75;;;;;;;;;;6208978;23;20123;-89
2023/09/23 04:20:35;;;;;;;3.72;3.05;;;;;;;;;;6211644;23;20051;-89
2023/09/23 04:23:02;;;;;;;4.22;3.22;;;;;;;;;;6210378;23;20057;-89
2023/09/23 04:25:28;;;;;;;3.92;2.95;;;;;;;;;;6185423;23;20021;-89
2023/09/23 04:27:54;;;;;;;4.15;3.33;;;;;;;;;;6210238;23;20096;-89
2023/09/23 04:30:22;;;;;;;4.65;3.15;;;;;;;;;;6209583;23;20009;-89
2023/09/23 04:32:48;;;;;;;3.80;2.83;;;;;;;;;;6210947;23;20422;-89
2023/09/23 04:35:16;;;;;;;4.35;3.33;;;;;;;;;;6209765;23;20025;-90
2023/09/23 04:37:42;;;;;;;5.40;3.25;;;;;;;;;;6212251;23;20019;-91
2023/09/23 04:40:10;;;;;;;4.25;2.83;;;;;;;;;;6211247;23;20016;-90
2023/09/23 04:42:37;;;;;;;5.60;3.45;;;;;;;;;;6211101;23;20012;-90
2023/09/23 04:45:03;;;;;;;5.30;3.63;;;;;;;;;;6209238;23;20334;-90
2023/09/23 04:47:30;;;;;;;4.75;3.20;;;;;;;;;;6212170;23;20102;-89
2023/09/23 04:49:58;;;;;;;4.20;3.40;;;;;;;;;;6211399;23;20019;-90
2023/09/23 04:52:24;;;;;;;5.43;3.92;;;;;;;;;;6210398;23;20048;-91
2023/09/23 04:54:53;;;;;;;5.25;3.47;;;;;;;;;;6210449;23;20020;-89
2023/09/23 04:57:19;;;;;;;4.95;3.30;;;;;;;;;;6209655;23;20016;-90
2023/09/23 04:59:45;;;;;;;5.65;3.53;;;;;;;;;;6211358;23;20024;-90
2023/09/23 05:02:15;;;;;;;6.22;4.13;;;;;;;;;;6210771;23;20013;-90
2023/09/23 05:04:41;;;;;;;4.50;3.38;;;;;;;;;;6212284;23;20012;-89
2023/09/23 05:07:07;;;;;;;6.00;3.75;;;;;;;;;;6211937;23;20339;-90
2023/09/23 05:09:34;;;;;;;6.28;4.28;;;;;;;;;;6212187;23;20044;-89
2023/09/23 05:12:01;;;;;;;6.20;4.35;;;;;;;;;;6210830;23;20383;-90
2023/09/23 05:14:27;;;;;;;7.40;5.20;;;;;;;;;;6211133;23;20016;-90
2023/09/23 05:16:52;;;;;;;6.97;4.55;;;;;;;;;;6212247;23;20017;-90
2023/09/23 05:19:23;;;;;;;6.53;5.30;;;;;;;;;;6212317;23;20447;-90
2023/09/23 05:21:50;;;;;;;7.15;5.05;;;;;;;;;;6212372;23;20334;-90
2023/09/23 05:24:16;;;;;;;7.28;4.72;;;;;;;;;;6211601;23;20016;-90
2023/09/23 05:26:43;;;;;;;8.20;5.55;;;;;;;;;;6213070;23;20017;-90
2023/09/23 05:29:09;;;;;;;7.60;5.75;;;;;;;;;;6211526;23;20021;-89
2023/09/23 05:31:38;;;;;;;9.50;5.72;;;;;;;;;;6211813;23;20013;-91
2023/09/23 05:34:04;;;;;;;9.30;6.20;;;;;;;;;;6213676;23;20092;-90
2023/09/23 05:36:31;;;;;;;11.20;5.93;;;;;;;;;;6212389;23;20081;-91
2023/09/23 05:38:58;;;;;;;11.32;6.53;;;;;;;;;;6213735;23;20013;-90
2023/09/23 05:41:24;;;;;;;10.98;7.03;;;;;;;;;;6213745;23;20072;-92
2023/09/23 05:43:52;;;;;;;14.07;7.78;;;;;;;;;;6212085;23;20080;-90
2023/09/23 05:46:21;;;;;;;10.90;7.00;;;;;;;;;;6211621;23;20066;-84
2023/09/23 05:48:50;;;;;;;12.52;7.80;;;;;;;;;;6210942;23;20028;-87
2023/09/23 05:51:16;;;;;;;11.48;7.93;;;;;;;;;;6212090;23;20335;-87
2023/09/23 05:53:42;;;;;;;15.75;8.77;;;;;;;;;;6211577;23;20013;-86
2023/09/23 05:56:08;;;;;;;16.45;10.05;;;;;;;;;;6212118;23;20315;-86
2023/09/23 05:58:34;;;;;;;14.25;8.82;;;;;;;;;;6212653;23;20023;-88
2023/09/23 06:01:01;;;;;;;13.82;9.18;;;;;;;;;;6212317;23;20020;-92
2023/09/23 06:03:27;;;;;;;12.98;8.15;;;;;;;;;;6187168;23;20451;-89
2023/09/23 06:05:53;;;;;;;14.80;9.52;;;;;;;;;;6214597;23;20092;-91
2023/09/23 06:08:19;;;;;;;12.50;8.55;;;;;;;;;;6214614;23;20016;-92
2023/09/23 06:10:45;;;;;;;14.07;9.10;;;;;;;;;;6214062;23;20103;-91
2023/09/23 06:13:11;;;;;;;16.15;9.70;;;;;;;;;;6213526;23;20015;-88
2023/09/23 06:15:37;;;;;;;13.40;8.60;;;;;;;;;;6216561;23;20020;-92
2023/09/23 06:18:03;;;;;;;15.73;9.40;;;;;;;;;;6213940;23;20316;-87
2023/09/23 06:20:29;;;;;;;16.10;10.23;;;;;;;;;;6215397;23;20056;-92
2023/09/23 06:22:55;;;;;;;13.95;9.73;;;;;;;;;;6216804;23;20009;-90
2023/09/23 06:25:21;;;;;;;16.63;9.95;;;;;;;;;;6213759;23;20082;-91
2023/09/23 06:27:48;;;;;;;15.02;8.80;;;;;;;;;;6215281;23;20020;-90
2023/09/23 06:30:15;;;;;;;14.57;9.00;;;;;;;;;;6215046;23;20101;-88
2023/09/23 06:32:41;;;;;;;14.18;8.85;;;;;;;;;;6218354;23;20013;-89
2023/09/23 06:35:08;;;;;;;14.90;9.57;;;;;;;;;;6221624;23;20020;-93
2023/09/23 06:37:35;;;;;;;14.82;8.60;;;;;;;;;;6220355;23;20020;-94
2023/09/23 06:40:01;;;;;;;15.30;9.50;;;;;;;;;;6214529;23;20016;-91
2023/09/23 06:42:27;;;;;;;15.77;9.73;;;;;;;;;;6212618;23;20016;-88
2023/09/23 06:44:53;;;;;;;14.85;10.00;;;;;;;;;;6209997;23;20393;-88
2023/09/23 06:47:20;;;;;;;16.58;10.80;;;;;;;;;;6208884;23;20055;-88
2023/09/23 06:49:46;;;;;;;17.60;10.40;;;;;;;;;;6214914;23;20013;-88
2023/09/23 06:52:12;;;;;;;16.25;9.65;;;;;;;;;;6209744;23;20043;-88
2023/09/23 06:54:38;;;;;;;13.27;8.88;;;;;;;;;;6213931;23;20021;-88
2023/09/23 06:57:04;;;;;;;15.23;9.60;;;;;;;;;;6210332;23;20017;-88
2023/09/23 06:59:30;;;;;;;17.48;10.30;;;;;;;;;;6210911;23;20023;-87
2023/09/23 07:01:56;;;;;;;15.77;10.70;;;;;;;;;;6209743;23;20017;-87
2023/09/23 07:04:22;;;;;;;16.63;9.93;;;;;;;;;;6209737;23;20418;-89
2023/09/23 07:06:48;;;;;;;15.85;9.95;;;;;;;;;;6185859;23;20071;-88
2023/09/23 07:09:14;;;;;;;13.50;8.88;;;;;;;;;;6211435;23;20052;-89
2023/09/23 07:11:40;;;;;;;17.60;10.90;;;;;;;;;;6209815;23;20017;-87
2023/09/23 07:14:06;;;;;;;16.27;9.23;;;;;;;;;;6209973;23;20087;-88
2023/09/23 07:16:36;;;;;;;14.90;10.13;;;;;;;;;;6211510;23;20013;-91
2023/09/23 07:19:02;;;;;;;14.25;9.02;;;;;;;;;;6212171;23;20021;-90
2023/09/23 07:21:29;;;;;;;13.95;9.18;;;;;;;;;;6208957;23;20068;-90
2023/09/23 07:23:55;;;;;;;13.30;8.32;;;;;;;;;;6211129;23;20058;-91
2023/09/23 07:26:21;;;;;;;13.93;8.95;;;;;;;;;;6211931;23;20091;-92
2023/09/23 07:28:48;;;;;;;15.95;10.00;;;;;;;;;;6212578;23;20078;-93
2023/09/23 07:31:14;;;;;;;16.83;9.50;;;;;;;;;;6220676;23;20021;-95
2023/09/23 07:33:40;;;;;;;14.50;9.38;;;;;;;;;;6214751;23;20055;-91
2023/09/23 07:36:13;;;;;;;14.38;9.77;;;;;;;;;;6211430;23;20013;-88
2023/09/23 07:38:42;;;;;;;13.90;9.30;;;;;;;;;;6192578;23;20017;-91
2023/09/23 07:41:08;;;;;;;14.05;9.02;;;;;;;;;;6228632;23;20068;-92
2023/09/23 07:43:34;;;;;;;14.00;9.40;;;;;;;;;;6239982;23;20027;-90
2023/09/23 07:46:00;;;;;;;13.85;9.48;;;;;;;;;;6236701;23;20015;-89
2023/09/23 07:48:26;;;;;;;13.13;8.88;;;;;;;;;;6218720;23;20339;-90
2023/09/23 07:50:54;;;;;;;13.27;8.85;;;;;;;;;;6211195;23;20020;-91
2023/09/23 07:53:20;;;;;;;13.27;8.68;;;;;;;;;;6185958;23;20051;-91
2023/09/23 07:55:46;;;;;;;13.93;9.15;;;;;;;;;;6211569;23;20059;-91
2023/09/23 07:58:12;;;;;;;14.65;8.68;;;;;;;;;;6209989;23;20351;-91
2023/09/23 08:00:38;;;;;;;13.43;8.38;;;;;;;;;;6212103;23;20095;-88
2023/09/23 08:03:04;;;;;;;14.00;8.00;;;;;;;;;;6214094;23;20016;-91
2023/09/23 08:05:32;;;;;;;14.82;9.80;;;;;;;;;;6216281;23;20076;-89
2023/09/23 08:07:58;;;;;;;12.75;7.97;;;;;;;;;;6218456;23;20023;-89
2023/09/23 08:10:24;;;;;;;14.15;9.63;;;;;;;;;;6229297;23;20016;-91
2023/09/23 08:12:51;;;;;;;12.75;8.10;;;;;;;;;;6198457;23;20013;-85
2023/09/23 08:15:17;;;;;;;13.18;8.43;;;;;;;;;;6230659;23;20079;-89
2023/09/23 08:17:43;;;;;;;11.65;8.45;;;;;;;;;;6233629;23;20024;-92
2023/09/23 09:57:54;;;;;;;6.15;4.50;;;;;;;;;;6212224;23;20360;-88
2023/09/23 10:00:33;;;;;;;5.38;4.43;;;;;;;;;;6211411;23;20485;-88
2023/09/23 10:03:01;;;;;;;5.70;5.05;;;;;;;;;;6214404;23;20374;-93
2023/09/23 10:05:33;;;;;;;6.38;5.00;;;;;;;;;;6214634;23;20044;-93
2023/09/23 10:08:00;;;;;;;5.35;4.78;;;;;;;;;;6223254;23;20005;-90
2023/09/23 10:10:32;;;;;;;5.88;5.00;;;;;;;;;;6228941;23;20012;-93
2023/09/23 10:13:06;;;;;;;7.13;4.00;;;;;;;;;;6227598;23;20043;-88
2023/09/23 10:15:36;;;;;;;3.90;3.55;;;;;;;;;;6215514;23;20044;-90
2023/09/23 10:18:03;;;;;;;4.85;4.03;;;;;;;;;;6222921;23;20460;-89
2023/09/23 10:20:33;;;;;;;7.13;4.28;;;;;;;;;;6219473;23;20040;-90
2023/09/23 10:23:00;;;;;;;4.40;4.00;;;;;;;;;;6211720;23;20013;-93
2023/09/23 10:25:36;;;;;;;5.20;4.18;;;;;;;;;;6213716;23;20413;-94
2023/09/23 10:28:04;;;;;;;4.18;3.17;;;;;;;;;;6211016;23;20397;-86
2023/09/23 10:30:32;;;;;;;7.80;3.88;;;;;;;;;;6213987;23;20035;-87
2023/09/23 10:32:58;;;;;;;5.75;3.78;;;;;;;;;;6210014;23;20087;-90
2023/09/23 10:35:26;;;;;;;3.80;3.30;;;;;;;;;;6212283;23;20043;-93
2023/09/23 10:37:52;;;;;;;5.13;3.33;;;;;;;;;;6210983;23;20017;-92
2023/09/23 10:40:20;;;;;;;4.55;3.00;;;;;;;;;;6211239;23;20446;-88
2023/09/23 10:42:46;;;;;;;3.85;3.08;;;;;;;;;;6214566;23;20012;-94
2023/09/23 10:45:13;;;;;;;3.15;2.72;;;;;;;;;;6212971;23;20016;-90
2023/09/23 10:47:39;;;;;;;4.00;2.47;;;;;;;;;;6210280;23;20020;-89
2023/09/23 10:50:06;;;;;;;6.18;2.63;;;;;;;;;;6213015;23;20703;-91
2023/09/23 10:52:35;;;;;;;2.55;2.35;;;;;;;;;;6214434;23;20012;-89
2023/09/23 10:55:02;;;;;;;3.03;2.63;;;;;;;;;;6213242;23;20118;-87
2023/09/23 10:57:28;;;;;;;4.68;2.80;;;;;;;;;;6211431;23;20021;-86
2023/09/23 10:59:54;;;;;;;3.60;2.50;;;;;;;;;;6210407;23;20032;-84
2023/09/23 11:02:21;;;;;;;4.32;2.50;;;;;;;;;;6210151;23;20024;-85
2023/09/23 11:04:48;;;;;;;2.38;2.10;;;;;;;;;;6210092;23;20023;-86
2023/09/23 11:07:14;;;;;;;4.68;2.15;;;;;;;;;;6209348;23;20078;-88
2023/09/23 11:09:43;;;;;;;2.08;1.98;;;;;;;;;;6208649;23;20016;-87
2023/09/23 11:12:12;;;;;;;3.58;2.28;;;;;;;;;;6208531;23;20020;-85
2023/09/23 11:14:38;;;;;;;5.40;2.13;;;;;;;;;;6209343;23;20012;-86
2023/09/23 11:17:04;;;;;;;3.22;2.20;;;;;;;;;;6210834;23;20023;-92
2023/09/23 11:19:30;;;;;;;2.58;2.13;;;;;;;;;;6220934;23;20048;-90
2023/09/23 11:24:37;;;;;;;3.05;2.35;;;;;;;;;;6202440;23;20019;-93
2023/09/23 11:27:06;;;;;;;3.05;2.25;;;;;;;;;;6157222;23;20390;-91
2023/09/23 11:29:32;;;;;;;2.70;2.25;;;;;;;;;;6157515;23;20039;-86
2023/09/23 11:31:58;;;;;;;4.40;2.40;;;;;;;;;;6181125;23;20335;-86
2023/09/23 11:34:24;;;;;;;1.95;1.73;;;;;;;;;;6181410;23;20028;-85
2023/09/23 11:36:50;;;;;;;2.70;2.50;;;;;;;;;;6182162;23;20014;-86
2023/09/23 11:39:16;;;;;;;2.35;2.15;;;;;;;;;;6155302;23;20013;-87
2023/09/23 11:41:42;;;;;;;3.05;2.28;;;;;;;;;;6182388;23;20439;-88
2023/09/23 11:44:09;;;;;;;2.33;2.03;;;;;;;;;;6157097;23;20044;-90
2023/09/23 11:46:36;;;;;;;2.95;2.00;;;;;;;;;;6183831;23;20112;-91
2023/09/23 11:49:02;;;;;;;2.25;1.95;;;;;;;;;;6185338;23;20027;-92
2023/09/23 11:51:28;;;;;;;2.13;1.77;;;;;;;;;;6157762;23;20029;-92
2023/09/23 11:53:54;;;;;;;3.40;1.98;;;;;;;;;;6133232;23;20466;-91
2023/09/23 11:56:20;;;;;;;2.42;2.00;;;;;;;;;;6183645;23;20028;-90
2023/09/23 11:58:46;;;;;;;3.67;1.85;;;;;;;;;;6133450;23;20076;-91
2023/09/23 12:01:12;;;;;;;3.22;1.70;;;;;;;;;;6131754;23;20017;-92
2023/09/23 12:03:38;;;;;;;3.28;1.60;;;;;;;;;;6185066;23;20045;-89
2023/09/23 12:06:04;;;;;;;2.00;1.30;;;;;;;;;;6183079;23;20013;-88
2023/09/23 12:08:30;;;;;;;2.45;1.10;;;;;;;;;;6184765;23;20009;-87
2023/09/23 12:10:56;;;;;;;2.58;1.55;;;;;;;;;;6157653;23;20017;-87
2023/09/23 12:13:24;;;;;;;4.85;1.33;;;;;;;;;;6184582;23;20023;-88
2023/09/23 12:15:51;;;;;;;1.75;1.23;;;;;;;;;;6173074;23;20020;-87
2023/09/23 12:18:17;;;;;;;4.05;1.88;;;;;;;;;;6174752;23;20052;-87
2023/09/23 12:20:43;;;;;;;4.88;3.92;;;;;;;;;;6167790;23;20017;-87
2023/09/23 12:23:10;;;;;;;3.05;2.50;;;;;;;;;;6141172;23;20081;-88
2023/09/23 12:25:39;;;;;;;2.72;1.90;;;;;;;;;;6102571;23;20068;-96
2023/09/23 12:28:06;;;;;;;3.90;1.65;;;;;;;;;;6127164;23;20020;-89
2023/09/23 12:30:32;;;;;;;1.63;1.40;;;;;;;;;;6103353;23;20025;-93
2023/09/23 12:32:58;;;;;;;1.48;1.38;;;;;;;;;;6128992;23;20085;-91
2023/09/23 12:35:24;;;;;;;0.90;0.90;;;;;;;;;;6101568;23;20018;-90
2023/09/23 12:37:52;;;;;;;1.67;1.38;;;;;;;;;;6104112;23;20036;-94
2023/09/23 12:40:20;;;;;;;2.75;1.38;;;;;;;;;;6128784;23;20037;-93
2023/09/23 12:42:51;;;;;;;1.75;0.90;;;;;;;;;;6106978;23;20040;-95
2023/09/23 12:45:17;;;;;;;2.25;0.95;;;;;;;;;;6126370;23;20018;-89
2023/09/23 12:47:55;;;;;;;2.58;1.20;;;;;;;;;;6103192;23;20010;-91
2023/09/23 12:50:21;;;;;;;2.35;1.70;;;;;;;;;;6124979;23;20037;-91
2023/09/23 12:53:07;;;;;;;2.45;2.20;;;;;;;;;;6129736;23;20045;-94
2023/09/23 12:55:33;;;;;;;2.80;1.98;;;;;;;;;;6129640;23;20443;-92
2023/09/23 12:57:59;;;;;;;1.52;1.42;;;;;;;;;;6133125;23;20068;-93
2023/09/23 13:00:25;;;;;;;2.38;1.98;;;;;;;;;;6153852;23;20045;-92
2023/09/23 13:02:51;;;;;;;2.10;1.90;;;;;;;;;;6129465;23;20057;-93
2023/09/23 13:05:17;;;;;;;1.50;1.40;;;;;;;;;;6152653;23;20017;-93
2023/09/23 13:07:44;;;;;;;1.55;1.17;;;;;;;;;;6154206;23;20014;-91
2023/09/23 13:10:11;;;;;;;1.58;1.02;;;;;;;;;;6152340;23;20340;-91
2023/09/23 13:12:37;;;;;;;1.00;0.90;;;;;;;;;;6152858;23;20111;-92
2023/09/23 13:15:04;;;;;;;1.15;0.98;;;;;;;;;;6124956;23;20021;-90
2023/09/23 13:17:30;;;;;;;1.70;0.80;;;;;;;;;;6099740;23;20421;-90
2023/09/23 13:19:56;;;;;;;0.68;0.68;;;;;;;;;;6102177;23;20013;-91
2023/09/23 13:22:22;;;;;;;2.00;0.85;;;;;;;;;;6130735;23;20101;-91
2023/09/23 13:24:49;;;;;;;1.13;0.90;;;;;;;;;;6182053;23;20017;-91
2023/09/23 13:27:15;;;;;;;1.17;0.82;;;;;;;;;;6182011;23;20020;-91
2023/09/23 13:29:42;;;;;;;1.75;0.85;;;;;;;;;;6131934;23;20013;-93
2023/09/23 13:32:11;;;;;;;4.20;1.20;;;;;;;;;;6133716;23;20088;-94
2023/09/23 13:34:38;;;;;;;1.83;1.25;;;;;;;;;;6132216;23;20021;-94
2023/09/23 13:37:08;;;;;;;2.92;1.70;;;;;;;;;;6184157;23;20327;-93
2023/09/23 13:39:34;;;;;;;1.55;1.45;;;;;;;;;;6159033;23;20017;-95
2023/09/23 13:42:02;;;;;;;2.20;1.55;;;;;;;;;;6160686;23;20013;-93
2023/09/23 13:44:28;;;;;;;1.83;1.33;;;;;;;;;;6187856;23;20075;-95
2023/09/23 13:46:54;;;;;;;2.25;1.58;;;;;;;;;;6185809;23;20041;-94
2023/09/23 13:49:20;;;;;;;1.80;1.55;;;;;;;;;;6187426;23;20013;-91
2023/09/23 13:51:46;;;;;;;3.40;1.27;;;;;;;;;;6131129;23;20021;-93
2023/09/23 13:54:15;;;;;;;1.85;0.95;;;;;;;;;;6157966;23;20028;-90
2023/09/23 13:56:43;;;;;;;1.73;0.95;;;;;;;;;;6159311;23;20049;-92
2023/09/23 13:59:09;;;;;;;1.65;0.60;;;;;;;;;;6160729;23;20013;-89
2023/09/23 14:01:35;;;;;;;2.38;0.88;;;;;;;;;;6158933;23;20096;-90
2023/09/23 14:04:01;;;;;;;3.63;1.02;;;;;;;;;;6156547;23;20396;-91
2023/09/23 14:06:27;;;;;;;1.98;0.80;;;;;;;;;;6157049;23;20061;-92
2023/09/23 14:08:54;;;;;;;1.75;0.80;;;;;;;;;;6157092;23;20013;-87
2023/09/23 14:11:20;;;;;;;1.42;0.75;;;;;;;;;;6156997;23;20095;-89
2023/09/23 14:13:47;;;;;;;1.00;0.50;;;;;;;;;;6133041;23;20013;-90
2023/09/23 14:16:13;;;;;;;0.73;0.60;;;;;;;;;;6156520;23;20108;-90
2023/09/23 14:18:39;;;;;;;1.60;0.57;;;;;;;;;;6158682;23;20439;-92
2023/09/23 14:21:05;;;;;;;1.55;0.50;;;;;;;;;;6155595;23;20431;-92
2023/09/23 14:23:31;;;;;;;1.63;0.50;;;;;;;;;;6132793;23;20028;-92
2023/09/23 14:25:57;;;;;;;0.93;0.60;;;;;;;;;;6133588;23;20104;-92
2023/09/23 14:28:23;;;;;;;1.50;0.70;;;;;;;;;;6156839;23;20343;-89
2023/09/23 14:30:49;;;;;;;2.35;0.90;;;;;;;;;;6134627;23;20048;-90
2023/09/23 14:33:15;;;;;;;0.95;0.70;;;;;;;;;;6183699;23;20085;-89
2023/09/23 14:35:41;;;;;;;1.05;0.65;;;;;;;;;;6183854;23;20345;-88
2023/09/23 14:38:07;;;;;;;1.50;0.60;;;;;;;;;;6155481;23;20024;-88
2023/09/23 14:40:33;;;;;;;1.30;0.80;;;;;;;;;;6155424;23;20374;-88
2023/09/23 14:43:00;;;;;;;0.60;0.60;;;;;;;;;;6181707;23;20017;-89
2023/09/23 14:45:26;;;;;;;2.35;0.80;;;;;;;;;;6156500;23;20016;-86
2023/09/23 14:47:52;;;;;;;0.93;0.60;;;;;;;;;;6156418;23;20073;-86
2023/09/23 14:50:18;;;;;;;1.98;0.63;;;;;;;;;;6129605;23;20062;-87
2023/09/23 14:52:44;;;;;;;1.15;0.60;;;;;;;;;;6152185;23;20390;-85
2023/09/23 14:55:11;;;;;;;1.73;0.80;;;;;;;;;;6154760;23;20021;-93
2023/09/23 14:57:37;;;;;;;1.73;0.85;;;;;;;;;;6182900;23;20063;-89
2023/09/23 15:00:05;;;;;;;2.25;0.60;;;;;;;;;;6129714;23;20013;-88
2023/09/23 15:02:31;;;;;;;0.50;0.45;;;;;;;;;;6154111;23;20017;-83
2023/09/23 15:04:58;;;;;;;2.25;0.60;;;;;;;;;;6153622;23;20342;-84
2023/09/23 15:07:23;;;;;;;1.02;0.73;;;;;;;;;;6153686;23;20017;-87
2023/09/23 15:09:50;;;;;;;1.55;0.70;;;;;;;;;;6154812;23;20483;-88
2023/09/23 15:12:16;;;;;;;0.73;0.52;;;;;;;;;;6155379;23;20021;-90
2023/09/23 15:14:42;;;;;;;0.82;0.50;;;;;;;;;;6156032;23;20017;-88
2023/09/23 15:17:08;;;;;;;1.27;0.57;;;;;;;;;;6183894;23;20607;-87
2023/09/23 15:19:34;;;;;;;1.65;0.70;;;;;;;;;;6157894;23;20390;-87
2023/09/23 15:22:00;;;;;;;0.77;0.50;;;;;;;;;;6154099;23;20013;-90
2023/09/23 15:24:26;;;;;;;1.10;0.50;;;;;;;;;;6155130;23;20099;-90
2023/09/23 15:26:52;;;;;;;1.25;0.60;;;;;;;;;;6181965;23;20017;-88
2023/09/23 15:29:19;;;;;;;0.57;0.47;;;;;;;;;;6180637;23;20009;-90
2023/09/23 15:31:46;;;;;;;0.65;0.47;;;;;;;;;;6180564;23;20075;-87
2023/09/23 15:34:12;;;;;;;0.63;0.47;;;;;;;;;;6179915;23;20013;-88
2023/09/23 15:36:39;;;;;;;0.50;0.45;;;;;;;;;;6178542;23;20020;-89
2023/09/23 15:39:05;;;;;;;0.60;0.40;;;;;;;;;;6181412;23;20082;-90
2023/09/23 15:41:31;;;;;;;0.55;0.40;;;;;;;;;;6154845;23;20021;-91
2023/09/23 15:43:57;;;;;;;1.17;0.38;;;;;;;;;;6157407;23;20020;-92
2023/09/23 15:46:24;;;;;;;1.33;0.40;;;;;;;;;;6157419;23;20028;-91
2023/09/23 15:48:50;;;;;;;2.60;0.38;;;;;;;;;;6159829;23;20017;-94
2023/09/23 15:51:16;;;;;;;0.40;0.40;;;;;;;;;;6186859;23;20008;-93
2023/09/23 15:53:43;;;;;;;1.65;0.45;;;;;;;;;;6186891;23;20442;-93
2023/09/23 15:56:09;;;;;;;1.00;0.28;;;;;;;;;;6155578;23;20028;-93
2023/09/23 15:58:36;;;;;;;1.50;0.60;;;;;;;;;;6156475;23;20020;-91
2023/09/23 16:01:04;;;;;;;1.35;0.77;;;;;;;;;;6180968;23;20017;-88
2023/09/23 16:03:30;;;;;;;1.65;0.70;;;;;;;;;;6178737;23;20017;-85
2023/09/23 16:05:57;;;;;;;1.77;0.60;;;;;;;;;;6180031;23;20016;-85
2023/09/23 16:08:24;;;;;;;0.70;0.40;;;;;;;;;;6152882;23;20097;-85
2023/09/23 16:10:51;;;;;;;11.40;9.30;;;;;;;;;;6180356;23;20013;-85
2023/09/23 16:13:17;;;;;;;4.07;3.60;;;;;;;;;;6180220;23;20020;-84
2023/09/23 16:15:43;;;;;;;0.98;0.80;;;;;;;;;;6180503;23;20048;-85
2023/09/23 16:18:09;;;;;;;2.50;2.30;;;;;;;;;;6153371;23;20032;-87